sensor_id;sensor_type;location;lat;lon;timestamp;temperature;humidity
30069;DHT22;16894;49.456;10.644;2023-06-26T00:02:14;16.40;99.90
30069;DHT22;16894;49.456;10.644;2023-06-26T00:04:44;16.40;99.90
30069;DHT22;16894;49.456;10.644;2023-06-26T00:07:10;16.30;99.90
30069;DHT22;16894;49.456;10.644;2023-06-26T00:09:36;16.30;99.90
30069;DHT22;16894;49.456;10.644;2023-06-26T00:12:02;16.20;99.90
30069;DHT22;16894;49.456;10.644;2023-06-26T00:14:28;16.10;99.90
30069;DHT22;16894;49.456;10.644;2023-06-26T00:16:54;16.00;99.90
30069;DHT22;16894;49.456;10.644;2023-06-26T00:19:20;15.90;99.90
30069;DHT22;16894;49.456;10.644;2023-06-26T00:21:45;15.90;99.90
30069;DHT22;16894;49.456;10.644;2023-06-26T00:24:14;16.00;99.90
30069;DHT22;16894;49.456;10.644;2023-06-26T00:26:40;16.00;99.90
30069;DHT22;16894;49.456;10.644;2023-06-26T00:29:06;16.00;99.90
30069;DHT22;16894;49.456;10.644;2023-06-26T00:31:32;16.00;99.90
30069;DHT22;16894;49.456;10.644;2023-06-26T00:33:57;15.90;99.90
30069;DHT22;16894;49.456;10.644;2023-06-26T00:36:23;15.80;99.90
30069;DHT22;16894;49.456;10.644;2023-06-26T00:38:50;15.80;99.90
30069;DHT22;16894;49.456;10.644;2023-06-26T00:41:16;15.80;99.90
30069;DHT22;16894;49.456;10.644;2023-06-26T00:43:41;15.70;99.90
30069;DHT22;16894;49.456;10.644;2023-06-26T00:46:13;15.70;99.90
30069;DHT22;16894;49.456;10.644;2023-06-26T00:48:41;15.70;99.90
30069;DHT22;16894;49.456;10.644;2023-06-26T00:51:08;15.60;99.90
30069;DHT22;16894;49.456;10.644;2023-06-26T00:53:34;15.50;99.90
30069;DHT22;16894;49.456;10.644;2023-06-26T00:56:01;15.30;99.90
30069;DHT22;16894;49.456;10.644;2023-06-26T00:58:27;15.30;99.90
30069;DHT22;16894;49.456;10.644;2023-06-26T01:00:53;15.20;99.90
30069;DHT22;16894;49.456;10.644;2023-06-26T01:03:20;15.10;99.90
30069;DHT22;16894;49.456;10.644;2023-06-26T01:05:46;15.10;99.90
30069;DHT22;16894;49.456;10.644;2023-06-26T01:08:15;15.10;99.90
30069;DHT22;16894;49.456;10.644;2023-06-26T01:10:41;15.00;99.90
30069;DHT22;16894;49.456;10.644;2023-06-26T01:13:08;15.00;99.90
30069;DHT22;16894;49.456;10.644;2023-06-26T01:15:34;15.00;99.90
30069;DHT22;16894;49.456;10.644;2023-06-26T01:18:01;14.90;99.90
30069;DHT22;16894;49.456;10.644;2023-06-26T01:20:38;15.00;99.90
30069;DHT22;16894;49.456;10.644;2023-06-26T01:23:22;15.10;99.90
30069;DHT22;16894;49.456;10.644;2023-06-26T01:28:39;15.20;99.90
30069;DHT22;16894;49.456;10.644;2023-06-26T01:31:06;15.00;99.90
30069;DHT22;16894;49.456;10.644;2023-06-26T01:33:32;14.80;99.90
30069;DHT22;16894;49.456;10.644;2023-06-26T01:35:58;14.70;99.90
30069;DHT22;16894;49.456;10.644;2023-06-26T01:38:24;14.60;99.90
30069;DHT22;16894;49.456;10.644;2023-06-26T01:40:51;14.60;99.90
30069;DHT22;16894;49.456;10.644;2023-06-26T01:43:46;14.60;99.90
30069;DHT22;16894;49.456;10.644;2023-06-26T01:49:28;14.90;99.90
30069;DHT22;16894;49.456;10.644;2023-06-26T01:55:35;14.70;99.90
30069;DHT22;16894;49.456;10.644;2023-06-26T01:58:04;14.70;99.90
30069;DHT22;16894;49.456;10.644;2023-06-26T02:00:29;14.60;99.90
30069;DHT22;16894;49.456;10.644;2023-06-26T02:02:56;14.60;99.90
30069;DHT22;16894;49.456;10.644;2023-06-26T02:05:22;14.60;99.90
30069;DHT22;16894;49.456;10.644;2023-06-26T02:07:49;14.70;99.90
30069;DHT22;16894;49.456;10.644;2023-06-26T02:10:14;14.80;99.90
30069;DHT22;16894;49.456;10.644;2023-06-26T02:12:41;14.80;99.90
30069;DHT22;16894;49.456;10.644;2023-06-26T02:15:07;14.80;99.90
30069;DHT22;16894;49.456;10.644;2023-06-26T02:17:33;14.80;99.90
30069;DHT22;16894;49.456;10.644;2023-06-26T02:19:58;14.70;99.90
30069;DHT22;16894;49.456;10.644;2023-06-26T02:22:24;14.60;99.90
30069;DHT22;16894;49.456;10.644;2023-06-26T02:24:49;14.40;99.90
30069;DHT22;16894;49.456;10.644;2023-06-26T02:27:15;14.40;99.90
30069;DHT22;16894;49.456;10.644;2023-06-26T02:29:41;14.20;99.90
30069;DHT22;16894;49.456;10.644;2023-06-26T02:32:08;14.10;99.90
30069;DHT22;16894;49.456;10.644;2023-06-26T02:34:35;14.20;99.90
30069;DHT22;16894;49.456;10.644;2023-06-26T02:37:02;14.20;99.90
30069;DHT22;16894;49.456;10.644;2023-06-26T02:39:27;14.20;99.90
30069;DHT22;16894;49.456;10.644;2023-06-26T02:41:54;14.20;99.90
30069;DHT22;16894;49.456;10.644;2023-06-26T02:44:19;14.30;99.90
30069;DHT22;16894;49.456;10.644;2023-06-26T02:46:46;14.30;99.90
30069;DHT22;16894;49.456;10.644;2023-06-26T02:49:12;14.20;99.90
30069;DHT22;16894;49.456;10.644;2023-06-26T02:51:38;14.10;99.90
30069;DHT22;16894;49.456;10.644;2023-06-26T02:54:03;13.90;99.90
30069;DHT22;16894;49.456;10.644;2023-06-26T02:56:29;13.90;99.90
30069;DHT22;16894;49.456;10.644;2023-06-26T02:58:55;13.90;99.90
30069;DHT22;16894;49.456;10.644;2023-06-26T03:01:22;13.90;99.90
30069;DHT22;16894;49.456;10.644;2023-06-26T03:03:47;13.80;99.90
30069;DHT22;16894;49.456;10.644;2023-06-26T03:06:14;13.70;99.90
30069;DHT22;16894;49.456;10.644;2023-06-26T03:08:40;13.50;99.90
30069;DHT22;16894;49.456;10.644;2023-06-26T03:11:06;13.40;99.90
30069;DHT22;16894;49.456;10.644;2023-06-26T03:13:33;13.40;99.90
30069;DHT22;16894;49.456;10.644;2023-06-26T03:15:59;13.60;99.90
30069;DHT22;16894;49.456;10.644;2023-06-26T03:18:27;13.60;99.90
30069;DHT22;16894;49.456;10.644;2023-06-26T03:20:54;13.70;99.90
30069;DHT22;16894;49.456;10.644;2023-06-26T03:23:20;13.80;99.90
30069;DHT22;16894;49.456;10.644;2023-06-26T03:25:46;13.90;99.90
30069;DHT22;16894;49.456;10.644;2023-06-26T03:28:12;13.90;99.90
30069;DHT22;16894;49.456;10.644;2023-06-26T03:30:37;14.00;99.90
30069;DHT22;16894;49.456;10.644;2023-06-26T03:33:03;14.00;99.90
30069;DHT22;16894;49.456;10.644;2023-06-26T03:35:29;13.90;99.90
30069;DHT22;16894;49.456;10.644;2023-06-26T03:37:55;13.90;99.90
30069;DHT22;16894;49.456;10.644;2023-06-26T03:40:21;13.80;99.90
30069;DHT22;16894;49.456;10.644;2023-06-26T03:42:46;13.80;99.90
30069;DHT22;16894;49.456;10.644;2023-06-26T03:45:12;13.90;99.90
30069;DHT22;16894;49.456;10.644;2023-06-26T03:47:37;13.80;99.90
30069;DHT22;16894;49.456;10.644;2023-06-26T03:50:03;13.70;99.90
30069;DHT22;16894;49.456;10.644;2023-06-26T03:52:29;13.70;99.90
30069;DHT22;16894;49.456;10.644;2023-06-26T03:54:57;13.80;99.90
30069;DHT22;16894;49.456;10.644;2023-06-26T03:57:23;13.90;99.90
30069;DHT22;16894;49.456;10.644;2023-06-26T03:59:49;13.90;99.90
30069;DHT22;16894;49.456;10.644;2023-06-26T04:02:15;14.00;99.90
30069;DHT22;16894;49.456;10.644;2023-06-26T04:04:41;13.90;99.90
30069;DHT22;16894;49.456;10.644;2023-06-26T04:07:06;14.00;99.90
30069;DHT22;16894;49.456;10.644;2023-06-26T04:09:32;14.00;99.90
30069;DHT22;16894;49.456;10.644;2023-06-26T04:11:58;13.90;99.90
30069;DHT22;16894;49.456;10.644;2023-06-26T04:14:23;13.90;99.90
30069;DHT22;16894;49.456;10.644;2023-06-26T04:16:49;14.00;99.90
30069;DHT22;16894;49.456;10.644;2023-06-26T04:19:15;14.10;99.90
30069;DHT22;16894;49.456;10.644;2023-06-26T04:21:41;14.10;99.90
30069;DHT22;16894;49.456;10.644;2023-06-26T04:24:07;14.20;99.90
30069;DHT22;16894;49.456;10.644;2023-06-26T04:26:33;14.20;99.90
30069;DHT22;16894;49.456;10.644;2023-06-26T04:28:58;14.20;99.90
30069;DHT22;16894;49.456;10.644;2023-06-26T04:31:25;14.30;99.90
30069;DHT22;16894;49.456;10.644;2023-06-26T04:33:50;14.30;99.90
30069;DHT22;16894;49.456;10.644;2023-06-26T04:36:19;14.40;99.90
30069;DHT22;16894;49.456;10.644;2023-06-26T04:38:45;14.40;99.90
30069;DHT22;16894;49.456;10.644;2023-06-26T04:41:10;14.40;99.90
30069;DHT22;16894;49.456;10.644;2023-06-26T04:43:36;14.50;99.90
30069;DHT22;16894;49.456;10.644;2023-06-26T04:46:05;14.60;99.90
30069;DHT22;16894;49.456;10.644;2023-06-26T04:48:31;14.60;99.90
30069;DHT22;16894;49.456;10.644;2023-06-26T04:50:57;14.50;99.90
30069;DHT22;16894;49.456;10.644;2023-06-26T04:53:24;14.60;99.90
30069;DHT22;16894;49.456;10.644;2023-06-26T04:55:51;14.60;99.90
30069;DHT22;16894;49.456;10.644;2023-06-26T04:58:17;14.70;99.90
30069;DHT22;16894;49.456;10.644;2023-06-26T05:00:43;14.80;99.90
30069;DHT22;16894;49.456;10.644;2023-06-26T05:03:13;14.80;99.90
30069;DHT22;16894;49.456;10.644;2023-06-26T05:05:38;14.90;99.90
30069;DHT22;16894;49.456;10.644;2023-06-26T05:08:33;15.00;99.90
30069;DHT22;16894;49.456;10.644;2023-06-26T05:10:59;15.00;99.90
30069;DHT22;16894;49.456;10.644;2023-06-26T05:13:25;15.10;99.90
30069;DHT22;16894;49.456;10.644;2023-06-26T05:15:51;15.20;99.90
30069;DHT22;16894;49.456;10.644;2023-06-26T05:18:17;15.30;99.90
30069;DHT22;16894;49.456;10.644;2023-06-26T05:20:43;15.40;99.90
30069;DHT22;16894;49.456;10.644;2023-06-26T05:23:10;15.50;99.90
30069;DHT22;16894;49.456;10.644;2023-06-26T05:25:37;15.60;99.90
30069;DHT22;16894;49.456;10.644;2023-06-26T05:28:03;15.70;99.90
30069;DHT22;16894;49.456;10.644;2023-06-26T05:30:31;15.80;99.90
30069;DHT22;16894;49.456;10.644;2023-06-26T05:32:59;15.80;99.90
30069;DHT22;16894;49.456;10.644;2023-06-26T05:35:28;16.00;99.90
30069;DHT22;16894;49.456;10.644;2023-06-26T05:37:56;16.10;99.90
30069;DHT22;16894;49.456;10.644;2023-06-26T05:40:22;16.10;99.90
30069;DHT22;16894;49.456;10.644;2023-06-26T05:42:48;16.20;99.90
30069;DHT22;16894;49.456;10.644;2023-06-26T05:45:15;16.30;99.90
30069;DHT22;16894;49.456;10.644;2023-06-26T05:47:41;16.40;99.90
30069;DHT22;16894;49.456;10.644;2023-06-26T05:50:08;16.50;99.90
30069;DHT22;16894;49.456;10.644;2023-06-26T05:52:34;16.60;99.90
30069;DHT22;16894;49.456;10.644;2023-06-26T05:55:01;16.70;99.90
30069;DHT22;16894;49.456;10.644;2023-06-26T05:57:28;16.80;99.90
30069;DHT22;16894;49.456;10.644;2023-06-26T05:59:54;17.00;99.90
30069;DHT22;16894;49.456;10.644;2023-06-26T06:02:20;17.10;99.90
30069;DHT22;16894;49.456;10.644;2023-06-26T06:04:45;17.30;99.90
30069;DHT22;16894;49.456;10.644;2023-06-26T06:07:12;17.40;99.90
30069;DHT22;16894;49.456;10.644;2023-06-26T06:09:37;17.50;99.90
30069;DHT22;16894;49.456;10.644;2023-06-26T06:12:04;17.60;99.90
30069;DHT22;16894;49.456;10.644;2023-06-26T06:14:32;17.80;99.90
30069;DHT22;16894;49.456;10.644;2023-06-26T06:16:58;17.90;99.90
30069;DHT22;16894;49.456;10.644;2023-06-26T06:19:24;18.10;99.90
30069;DHT22;16894;49.456;10.644;2023-06-26T06:21:50;18.20;99.90
30069;DHT22;16894;49.456;10.644;2023-06-26T06:24:16;18.40;99.90
30069;DHT22;16894;49.456;10.644;2023-06-26T06:26:42;18.60;99.90
30069;DHT22;16894;49.456;10.644;2023-06-26T06:29:07;18.90;99.90
30069;DHT22;16894;49.456;10.644;2023-06-26T06:31:33;19.10;99.90
30069;DHT22;16894;49.456;10.644;2023-06-26T06:33:58;19.20;99.90
30069;DHT22;16894;49.456;10.644;2023-06-26T06:36:24;19.30;99.90
30069;DHT22;16894;49.456;10.644;2023-06-26T06:38:50;19.60;99.90
30069;DHT22;16894;49.456;10.644;2023-06-26T06:41:15;19.70;99.90
30069;DHT22;16894;49.456;10.644;2023-06-26T06:43:41;19.80;99.90
30069;DHT22;16894;49.456;10.644;2023-06-26T06:46:08;19.90;99.90
30069;DHT22;16894;49.456;10.644;2023-06-26T06:48:34;20.10;99.90
30069;DHT22;16894;49.456;10.644;2023-06-26T06:50:59;20.30;99.90
30069;DHT22;16894;49.456;10.644;2023-06-26T06:53:25;20.50;99.90
30069;DHT22;16894;49.456;10.644;2023-06-26T06:55:51;20.80;99.70
30069;DHT22;16894;49.456;10.644;2023-06-26T06:58:16;21.00;98.70
30069;DHT22;16894;49.456;10.644;2023-06-26T07:00:44;21.30;97.50
30069;DHT22;16894;49.456;10.644;2023-06-26T07:03:10;21.60;97.10
30069;DHT22;16894;49.456;10.644;2023-06-26T07:05:36;21.80;96.80
30069;DHT22;16894;49.456;10.644;2023-06-26T07:08:02;22.00;95.90
30069;DHT22;16894;49.456;10.644;2023-06-26T07:10:28;22.20;94.70
30069;DHT22;16894;49.456;10.644;2023-06-26T07:12:54;22.60;94.10
30069;DHT22;16894;49.456;10.644;2023-06-26T07:15:23;22.80;93.50
30069;DHT22;16894;49.456;10.644;2023-06-26T07:17:48;23.10;92.70
30069;DHT22;16894;49.456;10.644;2023-06-26T07:20:14;23.40;91.40
30069;DHT22;16894;49.456;10.644;2023-06-26T07:22:43;23.70;90.80
30069;DHT22;16894;49.456;10.644;2023-06-26T07:25:13;24.00;89.90
30069;DHT22;16894;49.456;10.644;2023-06-26T07:27:38;24.10;88.40
30069;DHT22;16894;49.456;10.644;2023-06-26T07:30:05;24.30;88.20
30069;DHT22;16894;49.456;10.644;2023-06-26T07:32:31;24.40;87.30
30069;DHT22;16894;49.456;10.644;2023-06-26T07:34:56;24.60;85.90
30069;DHT22;16894;49.456;10.644;2023-06-26T07:37:22;24.70;85.10
30069;DHT22;16894;49.456;10.644;2023-06-26T07:39:49;24.70;84.00
30069;DHT22;16894;49.456;10.644;2023-06-26T07:42:15;24.90;83.90
30069;DHT22;16894;49.456;10.644;2023-06-26T07:44:42;25.00;82.80
30069;DHT22;16894;49.456;10.644;2023-06-26T07:47:08;25.20;82.30
30069;DHT22;16894;49.456;10.644;2023-06-26T07:49:34;25.30;82.00
30069;DHT22;16894;49.456;10.644;2023-06-26T07:52:00;25.40;82.60
30069;DHT22;16894;49.456;10.644;2023-06-26T07:54:25;25.60;81.30
30069;DHT22;16894;49.456;10.644;2023-06-26T07:56:59;25.80;80.30
30069;DHT22;16894;49.456;10.644;2023-06-26T07:59:26;25.90;79.60
30069;DHT22;16894;49.456;10.644;2023-06-26T08:01:53;25.90;80.30
30069;DHT22;16894;49.456;10.644;2023-06-26T08:04:20;26.10;80.40
30069;DHT22;16894;49.456;10.644;2023-06-26T08:06:51;26.40;79.40
30069;DHT22;16894;49.456;10.644;2023-06-26T08:09:19;26.60;79.20
30069;DHT22;16894;49.456;10.644;2023-06-26T08:11:45;26.80;77.20
30069;DHT22;16894;49.456;10.644;2023-06-26T08:14:11;26.90;75.90
30069;DHT22;16894;49.456;10.644;2023-06-26T08:16:40;27.10;74.90
30069;DHT22;16894;49.456;10.644;2023-06-26T08:19:06;27.00;74.80
30069;DHT22;16894;49.456;10.644;2023-06-26T08:21:31;27.30;74.50
30069;DHT22;16894;49.456;10.644;2023-06-26T08:23:57;27.60;74.50
30069;DHT22;16894;49.456;10.644;2023-06-26T08:26:23;27.90;73.30
30069;DHT22;16894;49.456;10.644;2023-06-26T08:28:48;28.00;71.60
30069;DHT22;16894;49.456;10.644;2023-06-26T08:31:14;28.30;71.40
30069;DHT22;16894;49.456;10.644;2023-06-26T08:33:40;28.50;71.10
30069;DHT22;16894;49.456;10.644;2023-06-26T08:36:05;28.80;70.60
30069;DHT22;16894;49.456;10.644;2023-06-26T08:38:31;29.10;70.00
30069;DHT22;16894;49.456;10.644;2023-06-26T08:40:56;29.10;68.80
30069;DHT22;16894;49.456;10.644;2023-06-26T08:43:22;29.20;68.60
30069;DHT22;16894;49.456;10.644;2023-06-26T08:45:48;29.40;68.70
30069;DHT22;16894;49.456;10.644;2023-06-26T08:48:17;29.70;69.10
30069;DHT22;16894;49.456;10.644;2023-06-26T08:50:44;29.90;67.30
30069;DHT22;16894;49.456;10.644;2023-06-26T08:55:38;30.20;65.50
30069;DHT22;16894;49.456;10.644;2023-06-26T08:58:06;30.20;65.40
30069;DHT22;16894;49.456;10.644;2023-06-26T09:00:32;30.30;65.10
30069;DHT22;16894;49.456;10.644;2023-06-26T09:02:58;30.60;64.50
30069;DHT22;16894;49.456;10.644;2023-06-26T09:05:26;30.70;64.10
30069;DHT22;16894;49.456;10.644;2023-06-26T09:07:52;30.90;63.90
30069;DHT22;16894;49.456;10.644;2023-06-26T09:10:21;31.10;64.00
30069;DHT22;16894;49.456;10.644;2023-06-26T09:12:47;31.50;62.60
30069;DHT22;16894;49.456;10.644;2023-06-26T09:15:14;31.50;62.60
30069;DHT22;16894;49.456;10.644;2023-06-26T09:17:42;31.50;61.60
30069;DHT22;16894;49.456;10.644;2023-06-26T09:20:08;31.40;61.90
30069;DHT22;16894;49.456;10.644;2023-06-26T09:22:36;31.50;61.70
30069;DHT22;16894;49.456;10.644;2023-06-26T09:25:03;31.60;62.10
30069;DHT22;16894;49.456;10.644;2023-06-26T09:27:30;32.00;60.60
30069;DHT22;16894;49.456;10.644;2023-06-26T09:29:56;31.80;59.40
30069;DHT22;16894;49.456;10.644;2023-06-26T09:32:26;31.80;60.20
30069;DHT22;16894;49.456;10.644;2023-06-26T09:34:53;32.00;59.80
30069;DHT22;16894;49.456;10.644;2023-06-26T09:37:21;32.00;59.20
30069;DHT22;16894;49.456;10.644;2023-06-26T09:39:48;32.00;59.20
30069;DHT22;16894;49.456;10.644;2023-06-26T09:42:14;31.40;60.20
30069;DHT22;16894;49.456;10.644;2023-06-26T09:44:44;32.00;56.70
30069;DHT22;16894;49.456;10.644;2023-06-26T09:47:10;32.70;56.60
30069;DHT22;16894;49.456;10.644;2023-06-26T09:49:36;32.90;56.10
30069;DHT22;16894;49.456;10.644;2023-06-26T09:52:06;32.50;55.70
30069;DHT22;16894;49.456;10.644;2023-06-26T09:54:32;32.50;55.50
30069;DHT22;16894;49.456;10.644;2023-06-26T09:57:12;32.60;55.90
30069;DHT22;16894;49.456;10.644;2023-06-26T09:59:42;33.10;55.20
30069;DHT22;16894;49.456;10.644;2023-06-26T10:02:08;33.20;53.60
30069;DHT22;16894;49.456;10.644;2023-06-26T10:04:35;33.40;53.20
30069;DHT22;16894;49.456;10.644;2023-06-26T10:07:03;33.20;54.30
30069;DHT22;16894;49.456;10.644;2023-06-26T10:09:30;33.00;52.80
30069;DHT22;16894;49.456;10.644;2023-06-26T10:14:27;33.60;52.40
30069;DHT22;16894;49.456;10.644;2023-06-26T10:16:58;34.10;52.00
30069;DHT22;16894;49.456;10.644;2023-06-26T10:19:27;34.60;51.70
30069;DHT22;16894;49.456;10.644;2023-06-26T10:21:54;34.20;50.90
30069;DHT22;16894;49.456;10.644;2023-06-26T10:24:23;34.00;50.40
30069;DHT22;16894;49.456;10.644;2023-06-26T10:26:55;33.80;50.80
30069;DHT22;16894;49.456;10.644;2023-06-26T10:29:23;33.70;50.80
30069;DHT22;16894;49.456;10.644;2023-06-26T10:31:53;33.90;51.20
30069;DHT22;16894;49.456;10.644;2023-06-26T10:34:20;34.20;50.30
30069;DHT22;16894;49.456;10.644;2023-06-26T10:36:47;34.60;50.10
30069;DHT22;16894;49.456;10.644;2023-06-26T10:39:13;35.20;50.10
30069;DHT22;16894;49.456;10.644;2023-06-26T10:41:40;35.10;50.40
30069;DHT22;16894;49.456;10.644;2023-06-26T10:44:16;35.10;50.00
30069;DHT22;16894;49.456;10.644;2023-06-26T10:46:52;35.10;50.50
30069;DHT22;16894;49.456;10.644;2023-06-26T10:49:27;35.20;49.20
30069;DHT22;16894;49.456;10.644;2023-06-26T10:51:53;34.80;49.30
30069;DHT22;16894;49.456;10.644;2023-06-26T10:54:21;34.70;49.80
30069;DHT22;16894;49.456;10.644;2023-06-26T10:56:51;34.90;49.00
30069;DHT22;16894;49.456;10.644;2023-06-26T10:59:24;35.30;49.80
30069;DHT22;16894;49.456;10.644;2023-06-26T11:02:02;35.50;49.30
30069;DHT22;16894;49.456;10.644;2023-06-26T11:10:01;35.70;49.60
30069;DHT22;16894;49.456;10.644;2023-06-26T11:12:53;35.90;61.90
30069;DHT22;16894;49.456;10.644;2023-06-26T11:15:20;36.00;49.50
30069;DHT22;16894;49.456;10.644;2023-06-26T11:17:46;35.70;47.80
30069;DHT22;16894;49.456;10.644;2023-06-26T11:20:14;35.80;50.80
30069;DHT22;16894;49.456;10.644;2023-06-26T11:22:41;35.70;49.00
30069;DHT22;16894;49.456;10.644;2023-06-26T11:25:08;35.60;48.40
30069;DHT22;16894;49.456;10.644;2023-06-26T11:27:44;35.40;50.00
30069;DHT22;16894;49.456;10.644;2023-06-26T11:30:11;35.70;47.80
30069;DHT22;16894;49.456;10.644;2023-06-26T11:32:38;36.10;47.80
30069;DHT22;16894;49.456;10.644;2023-06-26T11:35:04;36.70;46.90
30069;DHT22;16894;49.456;10.644;2023-06-26T11:37:31;37.00;47.30
30069;DHT22;16894;49.456;10.644;2023-06-26T11:39:57;37.10;46.90
30069;DHT22;16894;49.456;10.644;2023-06-26T11:42:23;37.50;46.80
30069;DHT22;16894;49.456;10.644;2023-06-26T11:44:50;38.00;45.30
30069;DHT22;16894;49.456;10.644;2023-06-26T11:47:17;37.50;45.80
30069;DHT22;16894;49.456;10.644;2023-06-26T11:49:45;37.10;46.40
30069;DHT22;16894;49.456;10.644;2023-06-26T11:52:11;36.90;46.00
30069;DHT22;16894;49.456;10.644;2023-06-26T11:54:37;37.10;46.20
30069;DHT22;16894;49.456;10.644;2023-06-26T11:57:04;37.20;47.10
30069;DHT22;16894;49.456;10.644;2023-06-26T11:59:37;37.70;46.10
30069;DHT22;16894;49.456;10.644;2023-06-26T12:02:14;37.80;46.10
30069;DHT22;16894;49.456;10.644;2023-06-26T12:04:42;38.20;45.60
30069;DHT22;16894;49.456;10.644;2023-06-26T12:07:09;38.20;46.60
30069;DHT22;16894;49.456;10.644;2023-06-26T12:09:42;39.00;45.50
30069;DHT22;16894;49.456;10.644;2023-06-26T12:12:10;38.60;45.40
30069;DHT22;16894;49.456;10.644;2023-06-26T12:14:37;37.40;46.10
30069;DHT22;16894;49.456;10.644;2023-06-26T12:17:12;36.90;47.30
30069;DHT22;16894;49.456;10.644;2023-06-26T12:19:39;37.30;47.20
30069;DHT22;16894;49.456;10.644;2023-06-26T12:22:08;36.90;47.90
30069;DHT22;16894;49.456;10.644;2023-06-26T12:24:37;36.70;48.30
30069;DHT22;16894;49.456;10.644;2023-06-26T12:27:08;37.10;48.10
30069;DHT22;16894;49.456;10.644;2023-06-26T12:29:35;37.30;48.50
30069;DHT22;16894;49.456;10.644;2023-06-26T12:32:01;37.00;48.70
30069;DHT22;16894;49.456;10.644;2023-06-26T12:37:00;37.00;48.20
30069;DHT22;16894;49.456;10.644;2023-06-26T12:39:26;37.20;47.40
30069;DHT22;16894;49.456;10.644;2023-06-26T12:42:00;37.80;47.70
30069;DHT22;16894;49.456;10.644;2023-06-26T12:44:30;38.30;47.00
30069;DHT22;16894;49.456;10.644;2023-06-26T12:47:01;38.60;46.60
30069;DHT22;16894;49.456;10.644;2023-06-26T12:51:57;37.50;48.00
30069;DHT22;16894;49.456;10.644;2023-06-26T12:54:22;37.20;48.70
30069;DHT22;16894;49.456;10.644;2023-06-26T12:56:48;37.40;49.00
30069;DHT22;16894;49.456;10.644;2023-06-26T12:59:14;38.10;48.40
30069;DHT22;16894;49.456;10.644;2023-06-26T13:01:39;38.20;48.00
30069;DHT22;16894;49.456;10.644;2023-06-26T13:04:05;37.90;47.70
30069;DHT22;16894;49.456;10.644;2023-06-26T13:06:32;38.00;48.60
30069;DHT22;16894;49.456;10.644;2023-06-26T13:08:58;37.90;47.80
30069;DHT22;16894;49.456;10.644;2023-06-26T13:11:24;36.90;48.90
30069;DHT22;16894;49.456;10.644;2023-06-26T13:13:50;35.90;50.10
30069;DHT22;16894;49.456;10.644;2023-06-26T13:16:16;35.00;50.90
30069;DHT22;16894;49.456;10.644;2023-06-26T13:18:42;35.00;51.70
30069;DHT22;16894;49.456;10.644;2023-06-26T13:21:07;35.20;51.70
30069;DHT22;16894;49.456;10.644;2023-06-26T13:23:33;35.90;51.40
30069;DHT22;16894;49.456;10.644;2023-06-26T13:25:58;36.80;50.80
30069;DHT22;16894;49.456;10.644;2023-06-26T13:28:24;37.50;49.60
30069;DHT22;16894;49.456;10.644;2023-06-26T13:30:50;36.50;49.30
30069;DHT22;16894;49.456;10.644;2023-06-26T13:33:16;35.30;50.30
30069;DHT22;16894;49.456;10.644;2023-06-26T13:35:42;35.00;50.70
30069;DHT22;16894;49.456;10.644;2023-06-26T13:38:07;35.30;51.80
30069;DHT22;16894;49.456;10.644;2023-06-26T13:40:33;35.80;50.60
30069;DHT22;16894;49.456;10.644;2023-06-26T13:42:59;36.70;49.60
30069;DHT22;16894;49.456;10.644;2023-06-26T13:45:25;37.40;48.90
30069;DHT22;16894;49.456;10.644;2023-06-26T13:47:51;37.60;49.00
30069;DHT22;16894;49.456;10.644;2023-06-26T13:50:16;38.00;48.60
30069;DHT22;16894;49.456;10.644;2023-06-26T13:52:42;37.80;48.60
30069;DHT22;16894;49.456;10.644;2023-06-26T13:55:08;36.90;49.30
30069;DHT22;16894;49.456;10.644;2023-06-26T13:57:33;35.70;50.10
30069;DHT22;16894;49.456;10.644;2023-06-26T13:59:59;35.10;52.20
30069;DHT22;16894;49.456;10.644;2023-06-26T14:02:25;35.20;52.70
30069;DHT22;16894;49.456;10.644;2023-06-26T14:04:52;36.10;51.70
30069;DHT22;16894;49.456;10.644;2023-06-26T14:07:41;36.80;50.60
30069;DHT22;16894;49.456;10.644;2023-06-26T14:10:09;37.00;49.50
30069;DHT22;16894;49.456;10.644;2023-06-26T14:12:34;37.00;49.50
30069;DHT22;16894;49.456;10.644;2023-06-26T14:15:00;37.20;49.70
30069;DHT22;16894;49.456;10.644;2023-06-26T14:17:26;37.60;49.50
30069;DHT22;16894;49.456;10.644;2023-06-26T14:19:52;38.40;49.80
30069;DHT22;16894;49.456;10.644;2023-06-26T14:22:18;39.10;49.10
30069;DHT22;16894;49.456;10.644;2023-06-26T14:24:44;39.20;48.10
30069;DHT22;16894;49.456;10.644;2023-06-26T14:27:10;38.40;49.60
30069;DHT22;16894;49.456;10.644;2023-06-26T14:29:36;38.20;49.20
30069;DHT22;16894;49.456;10.644;2023-06-26T14:32:03;37.80;50.40
30069;DHT22;16894;49.456;10.644;2023-06-26T14:34:29;36.80;51.50
30069;DHT22;16894;49.456;10.644;2023-06-26T14:36:55;35.90;51.90
30069;DHT22;16894;49.456;10.644;2023-06-26T14:39:21;35.10;53.20
30069;DHT22;16894;49.456;10.644;2023-06-26T14:41:47;34.90;54.40
30069;DHT22;16894;49.456;10.644;2023-06-26T14:44:16;33.90;55.40
30069;DHT22;16894;49.456;10.644;2023-06-26T14:46:42;33.00;57.50
30069;DHT22;16894;49.456;10.644;2023-06-26T14:49:08;32.70;58.50
30069;DHT22;16894;49.456;10.644;2023-06-26T14:51:34;33.10;57.60
30069;DHT22;16894;49.456;10.644;2023-06-26T14:54:00;32.50;58.20
30069;DHT22;16894;49.456;10.644;2023-06-26T14:56:26;32.30;59.30
30069;DHT22;16894;49.456;10.644;2023-06-26T14:58:54;32.30;59.80
30069;DHT22;16894;49.456;10.644;2023-06-26T15:01:20;32.70;59.40
30069;DHT22;16894;49.456;10.644;2023-06-26T15:03:46;32.60;59.10
30069;DHT22;16894;49.456;10.644;2023-06-26T15:06:13;32.60;59.40
30069;DHT22;16894;49.456;10.644;2023-06-26T15:08:39;32.80;59.70
30069;DHT22;16894;49.456;10.644;2023-06-26T15:11:04;32.10;60.30
30069;DHT22;16894;49.456;10.644;2023-06-26T15:13:30;31.90;60.30
30069;DHT22;16894;49.456;10.644;2023-06-26T15:15:56;32.20;60.20
30069;DHT22;16894;49.456;10.644;2023-06-26T15:18:22;32.60;59.70
30069;DHT22;16894;49.456;10.644;2023-06-26T15:20:48;32.70;59.90
30069;DHT22;16894;49.456;10.644;2023-06-26T15:23:13;32.50;59.90
30069;DHT22;16894;49.456;10.644;2023-06-26T15:25:39;32.40;60.00
30069;DHT22;16894;49.456;10.644;2023-06-26T15:28:08;31.90;60.90
30069;DHT22;16894;49.456;10.644;2023-06-26T15:30:33;31.50;62.30
30069;DHT22;16894;49.456;10.644;2023-06-26T15:32:59;31.40;62.60
30069;DHT22;16894;49.456;10.644;2023-06-26T15:35:25;31.30;62.70
30069;DHT22;16894;49.456;10.644;2023-06-26T15:37:52;31.10;63.20
30069;DHT22;16894;49.456;10.644;2023-06-26T15:40:18;31.00;63.60